AirNav   Air Wisconsin Up To $57,000 Bonus
 
 1514 users online  

66FL VA Outpatient Clinic Heliport
Melbourne, Florida, USA

GOING TO MELBOURNE?


FAA INFORMATION EFFECTIVE 05 DECEMBER 2019

Location

FAA Identifier: 66FL
Lat/Long: 28-15-15.8300N 080-44-39.4600W
28-15.263833N 080-44.657667W
28.2543972,-80.7442944
(estimated)
Elevation: 29 ft. / 9 m (estimated)
Variation: 04W (1995)
From city: 11 miles SE of MELBOURNE, FL
Time zone: UTC -5 (UTC -4 during Daylight Saving Time)
Zip code: 32955

Heliport Operations

Heliport use: Private use. Permission required prior to landing
Activation date: 10/1999
Control tower: no
ARTCC: JACKSONVILLE CENTER
FSS: SAINT PETERSBURG FLIGHT SERVICE STATION
Attendance: UNATNDD
Wind indicator: lighted
Segmented circle: no
Lights: 24 HRS

Heliport Communications

WX AWOS-3 at COI (6 nm NE): 119.025 (321-986-8864)
WX ASOS at MLB (10 nm SE): PHONE 321-951-7575
WX AWOS-3PT at TIX (16 nm N): 120.625 (321-567-6090)

Nearby radio navigation aids

VOR radial/distance  VOR name  Freq  Var
MLBr334/10.6MELBOURNE VOR/DME110.0007W
ORLr119/35.7ORLANDO VORTAC112.2000E
TRVr346/37.1TREASURE VORTAC117.3007W

Heliport Services

Runway Information

Helipad H1

Dimensions: 48 x 48 ft. / 15 x 15 m
Surface: concrete
Runway edge lights: PERI
Operational restrictions: H1 FATO MEASURES 87 FT BY 87 FT CONC.
Latitude: 28-15.263833N
Longitude: 080-44.657667W
Elevation: 29.0 ft.
Traffic pattern: leftleft

Heliport Ownership and Management from official FAA records

Ownership: Privately-owned
Owner: DEPT OF VETERANS AFFAIRS
13000 BRUCE B. DOWNS BLVD
TAMPA, FL 33612
Phone 813-972-2000
Manager: MICHAEL TIXIER
13000 BRUCE B. DOWNS BLVD
TAMPA, FL 33612
Phone 813-972-2000
EXTENSION 7066.

Additional Remarks

FOR CD CTC ORLANDO APCH AT 407-852-7553.

Instrument Procedures

There are no published instrument procedures at 66FL.

Some nearby airports with instrument procedures:

KCOI - Merritt Island Airport (6 nm NE)
KCOF - Patrick Air Force Base (7 nm E)
KMLB - Melbourne International Airport (10 nm SE)
KXMR - Cape Canaveral Air Force Station Skid Strip (16 nm NE)
KTIX - Space Coast Regional Airport (16 nm N)
 
Loc | Ops | Rwys | IFR | FBO | Links
Com | Nav | Svcs | Stats | Notes


 
Area around 66FL (VA Outpatient Clinic Heliport)
 
Road maps at: MapQuest Bing Google
 
Aerial photo
No photo
 
Sectional chart

 
Airport distance calculator
Flying to VA Outpatient Clinic Heliport? Find the distance to fly.

From to 66FL

Sunrise and sunset
Times for 05-Dec-2019
 Local
(UTC-5)
 Zulu
(UTC)
Morning civil twilight06:3611:36
Sunrise07:0212:02
Sunset17:2622:26
Evening civil twilight17:5122:51

Current date and time
Zulu (UTC)  05-Dec-2019 18:42:41
Local (UTC-5)  05-Dec-2019 13:42:41
 
METAR
KCOF 
9nm E 
051756Z AUTO 33007KT 10SM CLR 20/08 A3009 RMK AO2 SLP194 T02030083 10204 20120 58012 $
KMLB 
11nm SE 
051753Z 02009KT 10SM CLR 21/08 A3009 RMK AO2 SLP190 T02060083 10206 20067 58013
KTIX 
16nm N 
051747Z 03005KT 7SM CLR 22/07 A3010
KXMR 
17nm NE 
051756Z AUTO 02006KT 10SM CLR 21/09 A3008 RMK AO2 SLP189 T02050088 10206 20107 58012 $
TAF
KCOF 
9nm E 
051100Z 0511/0617 34006KT 9999 FEW200 QNH3005INS BECMG 0521/0522 03004KT 9999 FEW200 QNH3011INS TX20/0519Z TN11/0511Z
KMLB 
11nm SE 
051735Z 0518/0618 01008KT P6SM SCT250 FM060000 VRB03KT P6SM SCT250 FM061700 15007KT P6SM FEW035
KTIX 
16nm N 
051735Z 0518/0618 01008KT P6SM FEW250 FM060000 VRB03KT P6SM FEW250 FM061700 16007KT P6SM FEW035
NOTAMs
Click for the latest NOTAMs
NOTAMs are issued by the DoD/FAA and will open in a separate window not controlled by AirNav.

 

 
 

Would you like to see your business listed on this page?

 If your business provides an interesting product or service to pilots, flight crews, aircraft, or users of the VA Outpatient Clinic Heliport, you should consider listing it here.  To start the listing process, click on the button below
 
Add a business
 

Other Pages about VA Outpatient Clinic Heliport

Update a link
 
Copyright © AirNav, LLC. All rights reserved. Privacy Policy  Contact